Time;durP1;ratioP1;P1;durP2;ratioP2;P2;SDS_P1;SDS_P2;PMS_P1;PMS_P2;Temp;Humidity;BMP_temperature;BMP_pressure;BME280_temperature;BME280_humidity;BME280_pressure;Samples;Min_cycle;Max_cycle;Signal;HPM_P1;HPM_P2
2020/12/28 00:01:38;;;;;;;2.53;2.30;;;2.90;99.90;;;;;;4921197;29;20741;-54
2020/12/28 00:04:05;;;;;;;2.40;1.75;;;2.90;99.90;;;;;;4943267;29;20204;-54
2020/12/28 00:06:32;;;;;;;2.72;1.75;;;2.90;99.90;;;;;;4936549;29;20193;-55
2020/12/28 00:09:00;;;;;;;3.78;1.83;;;2.90;99.90;;;;;;4924697;29;20189;-57
2020/12/28 00:11:27;;;;;;;5.18;3.15;;;2.90;99.90;;;;;;4936163;29;20207;-58
2020/12/28 00:13:54;;;;;;;3.47;2.20;;;2.90;99.90;;;;;;4936454;29;20204;-57
2020/12/28 00:16:21;;;;;;;3.63;3.15;;;3.00;99.90;;;;;;4936798;29;20196;-56
2020/12/28 00:18:48;;;;;;;2.33;2.17;;;3.00;99.90;;;;;;4936064;29;20380;-53
2020/12/28 00:21:16;;;;;;;3.83;1.95;;;3.10;99.90;;;;;;4930854;29;20193;-57
2020/12/28 00:23:43;;;;;;;3.35;2.17;;;3.00;99.90;;;;;;4947296;29;20211;-58
2020/12/28 00:26:11;;;;;;;2.80;1.70;;;3.10;99.90;;;;;;4956554;29;20238;-55
2020/12/28 00:28:39;;;;;;;2.22;1.80;;;3.10;99.90;;;;;;4958132;29;20202;-60
2020/12/28 00:31:09;;;;;;;3.28;2.35;;;3.10;99.90;;;;;;4955572;29;20290;-62
2020/12/28 00:33:36;;;;;;;3.08;2.42;;;3.00;99.90;;;;;;4956228;29;20239;-56
2020/12/28 00:36:03;;;;;;;3.92;2.40;;;3.00;99.90;;;;;;4956220;29;20207;-59
2020/12/28 00:38:30;;;;;;;2.75;2.17;;;3.00;99.90;;;;;;4939352;29;20207;-55
2020/12/28 00:40:57;;;;;;;2.90;2.38;;;3.00;99.90;;;;;;4955999;29;20307;-59
2020/12/28 00:43:25;;;;;;;2.40;1.73;;;2.90;99.90;;;;;;4957495;29;20188;-55
2020/12/28 00:45:54;;;;;;;2.33;2.00;;;2.90;99.90;;;;;;4938991;29;20283;-57
2020/12/28 00:48:21;;;;;;;3.83;2.42;;;2.80;99.90;;;;;;4956514;29;20200;-57
2020/12/28 00:50:49;;;;;;;2.70;2.40;;;2.80;99.90;;;;;;4956610;29;20208;-58
2020/12/28 00:53:16;;;;;;;3.70;2.85;;;2.80;99.90;;;;;;4956093;29;20198;-57
2020/12/28 00:55:43;;;;;;;4.05;3.47;;;2.70;99.90;;;;;;4938910;29;20207;-58
2020/12/28 00:58:11;;;;;;;4.30;2.72;;;2.70;99.90;;;;;;4940694;29;20254;-57
2020/12/28 01:00:41;;;;;;;3.30;1.60;;;2.70;99.90;;;;;;4938730;29;20259;-58
2020/12/28 01:03:09;;;;;;;6.10;1.90;;;2.70;99.90;;;;;;4939233;29;20227;-61
2020/12/28 01:05:55;;;;;;;3.83;2.65;;;2.70;99.90;;;;;;4955895;28;20692;-57
2020/12/28 01:08:22;;;;;;;5.47;3.08;;;2.70;99.90;;;;;;4954397;29;20192;-57
2020/12/28 01:10:51;;;;;;;6.28;3.40;;;2.70;99.90;;;;;;4954769;29;20216;-57
2020/12/28 01:13:18;;;;;;;3.67;2.60;;;2.70;99.90;;;;;;4937540;29;20624;-55
2020/12/28 01:15:53;;;;;;;4.93;2.85;;;2.70;99.90;;;;;;4954776;29;20199;-59
2020/12/28 01:18:23;;;;;;;3.38;2.95;;;2.70;99.90;;;;;;4937789;29;20188;-58
2020/12/28 01:20:56;;;;;;;5.13;3.42;;;2.70;99.90;;;;;;4938109;29;20220;-57
2020/12/28 01:23:25;;;;;;;2.47;2.03;;;2.70;99.90;;;;;;4938661;29;20192;-54
2020/12/28 01:26:03;;;;;;;2.55;2.35;;;2.70;99.90;;;;;;4938341;29;20569;-58
2020/12/28 01:28:33;;;;;;;4.25;3.85;;;2.70;99.90;;;;;;4956302;29;20658;-53
2020/12/28 01:31:01;;;;;;;4.72;2.63;;;2.70;99.90;;;;;;4939576;29;20231;-56
2020/12/28 01:33:49;;;;;;;3.90;3.17;;;2.70;99.90;;;;;;4955830;29;20231;-56
2020/12/28 01:36:18;;;;;;;2.15;1.65;;;2.70;99.90;;;;;;4956321;29;20196;-59
2020/12/28 01:38:46;;;;;;;5.10;2.72;;;2.70;99.90;;;;;;4937917;29;20196;-60
2020/12/28 01:41:15;;;;;;;6.68;3.40;;;2.70;99.90;;;;;;4938766;29;20243;-55
2020/12/28 01:43:45;;;;;;;7.32;2.08;;;2.70;99.90;;;;;;4955307;29;20200;-58
2020/12/28 01:46:17;;;;;;;6.68;2.83;;;2.60;99.90;;;;;;4937485;29;20227;-57
2020/12/28 01:48:47;;;;;;;3.85;2.60;;;2.60;99.90;;;;;;4937089;29;20287;-58
2020/12/28 01:51:19;;;;;;;3.28;1.98;;;2.60;99.90;;;;;;4936137;29;20621;-57
2020/12/28 01:53:47;;;;;;;4.45;2.22;;;2.60;99.90;;;;;;4953642;29;20196;-56
2020/12/28 01:56:28;;;;;;;2.17;2.05;;;2.60;99.90;;;;;;4936409;29;20184;-54
2020/12/28 01:58:56;;;;;;;4.57;2.95;;;2.60;99.90;;;;;;4936535;29;20664;-54
2020/12/28 02:01:35;;;;;;;12.15;3.85;;;2.60;99.90;;;;;;4935686;29;20284;-51
2020/12/28 02:04:02;;;;;;;4.88;4.03;;;2.60;99.90;;;;;;4936142;29;20215;-55
2020/12/28 02:06:36;;;;;;;6.75;3.40;;;2.60;99.90;;;;;;4936026;29;20192;-54
2020/12/28 02:09:05;;;;;;;1.90;1.55;;;2.60;99.90;;;;;;4936384;29;20228;-55
2020/12/28 02:11:33;;;;;;;6.05;4.00;;;2.60;99.90;;;;;;4936195;29;20200;-55
2020/12/28 02:14:02;;;;;;;5.30;2.47;;;2.60;99.90;;;;;;4936180;29;20204;-58
2020/12/28 02:16:41;;;;;;;3.22;2.53;;;2.60;99.90;;;;;;4937328;28;20756;-53
2020/12/28 02:19:12;;;;;;;4.47;3.13;;;2.60;99.90;;;;;;4942942;29;20736;-57
2020/12/28 02:21:45;;;;;;;5.13;4.13;;;2.60;99.90;;;;;;4943476;29;20199;-57
2020/12/28 02:24:16;;;;;;;3.65;2.85;;;2.50;99.90;;;;;;4939427;29;20184;-55
2020/12/28 02:26:47;;;;;;;3.63;2.95;;;2.60;99.90;;;;;;4921240;29;20211;-61
2020/12/28 02:29:14;;;;;;;4.05;2.58;;;2.50;99.90;;;;;;4937863;29;20587;-55
2020/12/28 02:31:42;;;;;;;8.77;2.72;;;2.50;99.90;;;;;;4936587;29;20199;-50
2020/12/28 02:34:42;;;;;;;3.00;2.42;;;2.50;99.90;;;;;;4925844;29;20256;-53
2020/12/28 02:37:18;;;;;;;3.20;2.50;;;2.50;99.90;;;;;;4920542;29;20211;-54
2020/12/28 02:39:56;;;;;;;4.30;2.47;;;2.60;99.90;;;;;;4937507;29;20217;-54
2020/12/28 02:42:26;;;;;;;2.30;2.10;;;2.60;99.90;;;;;;4920077;29;20671;-54
2020/12/28 02:45:12;;;;;;;2.75;2.15;;;2.60;99.90;;;;;;4937025;29;20529;-55
2020/12/28 02:47:58;;;;;;;5.60;2.22;;;2.60;99.90;;;;;;4938102;29;20223;-54
2020/12/28 02:50:44;;;;;;;8.55;4.30;;;2.60;99.90;;;;;;4937429;29;20227;-54
2020/12/28 02:53:31;;;;;;;5.22;3.35;;;2.60;99.90;;;;;;4937451;29;20203;-54
2020/12/28 02:56:17;;;;;;;3.28;2.55;;;2.60;99.90;;;;;;4937814;29;20267;-55
2020/12/28 02:59:03;;;;;;;2.67;1.88;;;2.60;99.90;;;;;;4937483;29;20192;-55
2020/12/28 03:01:49;;;;;;;3.83;2.25;;;2.60;99.90;;;;;;4937678;29;20192;-54
2020/12/28 03:04:35;;;;;;;4.15;2.17;;;2.50;99.90;;;;;;4937800;29;20271;-57
2020/12/28 03:07:22;;;;;;;3.70;2.90;;;2.50;99.90;;;;;;4939165;29;20208;-53
2020/12/28 03:10:12;;;;;;;4.75;3.13;;;2.50;99.90;;;;;;4938418;29;20299;-58
2020/12/28 03:13:12;;;;;;;3.22;1.70;;;2.50;99.90;;;;;;4938003;29;20309;-54
2020/12/28 03:16:20;;;;;;;5.38;2.65;;;2.50;99.90;;;;;;4922968;29;20292;-51
2020/12/28 03:19:16;;;;;;;5.22;2.42;;;2.40;99.90;;;;;;4937701;29;20279;-58
2020/12/28 03:22:17;;;;;;;4.13;2.55;;;2.40;99.90;;;;;;4937833;29;20666;-59
2020/12/28 03:25:12;;;;;;;2.97;2.72;;;2.50;99.90;;;;;;4937458;29;20196;-56
2020/12/28 03:28:15;;;;;;;5.38;2.83;;;2.60;99.90;;;;;;4936443;29;20574;-56
2020/12/28 03:31:25;;;;;;;4.75;3.10;;;2.60;99.90;;;;;;4935908;29;20268;-53
2020/12/28 03:34:15;;;;;;;5.90;2.70;;;2.60;99.90;;;;;;4936188;29;20220;-55
2020/12/28 03:37:21;;;;;;;5.30;3.33;;;2.60;99.90;;;;;;4936824;29;20212;-56
2020/12/28 03:40:18;;;;;;;4.05;3.08;;;2.50;99.90;;;;;;4935434;29;20618;-54
2020/12/28 03:43:12;;;;;;;4.15;3.25;;;2.60;99.90;;;;;;4935962;29;20204;-56
2020/12/28 03:46:01;;;;;;;3.58;3.20;;;2.60;99.90;;;;;;4936201;29;20204;-55
2020/12/28 03:48:52;;;;;;;5.45;2.47;;;2.60;99.90;;;;;;4936487;29;20236;-54
2020/12/28 03:51:42;;;;;;;4.75;3.10;;;2.60;99.90;;;;;;4936468;29;20203;-56
2020/12/28 03:54:31;;;;;;;3.55;2.92;;;2.60;99.90;;;;;;4936249;29;20189;-58
2020/12/28 03:57:22;;;;;;;6.90;3.25;;;2.60;99.90;;;;;;4936529;29;20216;-54
2020/12/28 04:00:32;;;;;;;2.70;2.10;;;2.50;99.90;;;;;;4912989;29;20263;-56
2020/12/28 04:03:31;;;;;;;3.45;3.15;;;2.50;99.90;;;;;;4936164;29;20193;-54
2020/12/28 04:06:24;;;;;;;2.45;2.13;;;2.40;99.90;;;;;;4935950;29;20287;-59
2020/12/28 04:09:23;;;;;;;6.47;3.08;;;2.40;99.90;;;;;;4934872;29;20228;-56
2020/12/28 04:12:39;;;;;;;2.78;2.58;;;2.50;99.90;;;;;;4857371;29;20206;-57
2020/12/28 04:15:09;;;;;;;4.50;3.30;;;2.40;99.90;;;;;;4925577;29;20200;-58
2020/12/28 04:17:50;;;;;;;3.90;3.03;;;2.40;99.90;;;;;;4934710;29;20664;-57
2020/12/28 04:20:35;;;;;;;3.00;2.70;;;2.40;99.90;;;;;;4933949;29;20235;-58
2020/12/28 04:23:09;;;;;;;3.63;3.25;;;2.40;99.90;;;;;;4934533;29;20239;-58
2020/12/28 04:25:52;;;;;;;6.05;3.22;;;2.50;99.90;;;;;;4934461;29;20181;-57
2020/12/28 04:28:46;;;;;;;5.15;2.88;;;2.50;99.90;;;;;;4934603;29;20666;-57
2020/12/28 04:31:19;;;;;;;3.53;1.80;;;2.50;99.90;;;;;;4935004;29;20197;-56
2020/12/28 04:33:50;;;;;;;3.17;2.65;;;2.50;99.90;;;;;;4934649;29;20195;-53
2020/12/28 04:36:23;;;;;;;3.30;2.92;;;2.50;99.90;;;;;;4917229;29;20200;-53
2020/12/28 04:38:58;;;;;;;6.18;2.97;;;2.50;99.90;;;;;;4934220;29;20682;-56
2020/12/28 04:41:31;;;;;;;3.47;2.78;;;2.50;99.90;;;;;;4934162;29;20260;-53
2020/12/28 04:44:01;;;;;;;6.63;4.68;;;2.50;99.90;;;;;;4934310;29;20193;-56
2020/12/28 04:46:42;;;;;;;3.80;2.92;;;2.60;99.90;;;;;;4934088;29;20196;-55
2020/12/28 04:49:14;;;;;;;4.60;3.05;;;2.50;99.90;;;;;;4934253;29;20212;-52
2020/12/28 04:51:41;;;;;;;3.85;2.15;;;2.60;99.90;;;;;;4934254;29;20260;-55
2020/12/28 04:54:15;;;;;;;2.60;2.28;;;2.60;99.90;;;;;;4933786;29;20615;-57
2020/12/28 04:56:53;;;;;;;4.68;2.30;;;2.60;99.90;;;;;;4914661;29;20575;-53
2020/12/28 04:59:29;;;;;;;1.98;1.48;;;2.60;99.90;;;;;;4917027;29;20324;-55
2020/12/28 05:02:02;;;;;;;3.33;3.00;;;2.60;99.90;;;;;;4933516;29;20181;-55
2020/12/28 05:04:36;;;;;;;3.92;2.75;;;2.60;99.90;;;;;;4933638;29;20185;-57
2020/12/28 05:07:07;;;;;;;5.32;3.45;;;2.60;99.90;;;;;;4933534;29;20280;-55
2020/12/28 05:09:37;;;;;;;3.38;3.08;;;2.60;99.90;;;;;;4933469;29;20235;-55
2020/12/28 05:12:11;;;;;;;4.45;3.85;;;2.60;99.90;;;;;;4923091;29;20185;-55
2020/12/28 05:14:46;;;;;;;3.42;2.03;;;2.60;99.90;;;;;;4922812;29;20249;-52
2020/12/28 05:17:30;;;;;;;5.55;2.42;;;2.60;99.90;;;;;;4928784;29;20203;-55
2020/12/28 05:20:03;;;;;;;3.83;2.20;;;2.70;99.90;;;;;;4933607;29;20240;-52
2020/12/28 05:22:34;;;;;;;2.83;2.25;;;2.70;99.90;;;;;;4933983;29;20195;-55
2020/12/28 05:25:06;;;;;;;3.15;2.35;;;2.70;99.90;;;;;;4933615;29;20259;-54
2020/12/28 05:27:38;;;;;;;3.35;2.45;;;2.70;99.90;;;;;;4934430;29;20180;-55
2020/12/28 05:30:06;;;;;;;3.45;2.40;;;2.70;99.90;;;;;;4934667;29;20212;-58
2020/12/28 05:32:33;;;;;;;4.15;3.00;;;2.70;99.90;;;;;;4934363;29;20193;-59
2020/12/28 05:35:05;;;;;;;3.40;3.10;;;2.70;99.90;;;;;;4934702;29;20283;-56
2020/12/28 05:37:32;;;;;;;4.07;3.10;;;2.70;99.90;;;;;;4935034;29;20256;-56
2020/12/28 05:40:00;;;;;;;7.35;4.75;;;2.70;99.90;;;;;;4934653;29;20221;-58
2020/12/28 05:42:27;;;;;;;3.42;2.70;;;2.60;99.90;;;;;;4934549;29;20187;-59
2020/12/28 05:44:54;;;;;;;4.72;3.40;;;2.60;99.90;;;;;;4934583;29;20208;-56
2020/12/28 05:47:21;;;;;;;6.85;3.65;;;2.60;99.90;;;;;;4934740;29;20181;-56
2020/12/28 05:49:49;;;;;;;5.95;3.88;;;2.60;99.90;;;;;;4934495;29;20583;-56
2020/12/28 05:52:17;;;;;;;3.47;3.15;;;2.60;99.90;;;;;;4935255;29;20579;-58
2020/12/28 05:54:45;;;;;;;3.88;2.85;;;2.60;99.90;;;;;;4938261;29;20197;-52
2020/12/28 05:57:12;;;;;;;3.08;2.88;;;2.60;99.90;;;;;;4937877;29;20208;-58
2020/12/28 05:59:40;;;;;;;6.50;2.08;;;2.60;99.90;;;;;;4938091;29;20208;-58
2020/12/28 06:02:08;;;;;;;4.25;3.70;;;2.70;99.90;;;;;;4938248;29;20654;-55
2020/12/28 06:04:38;;;;;;;3.70;2.97;;;2.70;99.90;;;;;;4938323;29;20236;-57
2020/12/28 06:07:05;;;;;;;6.60;3.10;;;2.60;99.90;;;;;;4938507;29;20261;-56
2020/12/28 06:09:34;;;;;;;5.10;4.70;;;2.50;99.90;;;;;;4938144;29;20209;-56
2020/12/28 06:12:02;;;;;;;2.25;2.00;;;2.50;99.90;;;;;;4938301;29;20199;-57
2020/12/28 06:14:33;;;;;;;4.68;2.90;;;2.50;99.90;;;;;;4938664;29;20208;-57
2020/12/28 06:17:04;;;;;;;3.33;2.90;;;2.40;99.90;;;;;;4938760;29;20243;-57
2020/12/28 06:19:31;;;;;;;4.13;3.30;;;2.40;99.90;;;;;;4937944;29;20584;-57
2020/12/28 06:21:58;;;;;;;2.53;2.15;;;2.40;99.90;;;;;;4937559;29;20224;-60
2020/12/28 06:24:27;;;;;;;3.17;2.70;;;2.30;99.90;;;;;;4937861;29;20191;-59
2020/12/28 06:27:04;;;;;;;4.10;3.55;;;2.30;99.90;;;;;;4938305;29;20256;-60
2020/12/28 06:29:32;;;;;;;5.30;3.00;;;2.20;99.90;;;;;;4937894;29;20263;-60
2020/12/28 06:32:11;;;;;;;6.15;3.80;;;2.20;99.90;;;;;;4937841;29;20651;-55
2020/12/28 06:34:38;;;;;;;4.40;3.15;;;2.30;99.90;;;;;;4937907;29;20716;-52
2020/12/28 06:37:05;;;;;;;4.55;4.13;;;2.30;99.90;;;;;;4937381;29;20188;-56
2020/12/28 06:39:33;;;;;;;5.47;4.32;;;2.20;99.90;;;;;;4937873;29;20223;-58
2020/12/28 06:42:09;;;;;;;4.43;2.67;;;2.20;99.90;;;;;;4937839;29;20216;-56
2020/12/28 06:44:37;;;;;;;4.95;3.55;;;2.20;99.90;;;;;;4937830;29;20184;-58
2020/12/28 06:47:16;;;;;;;4.07;3.35;;;2.20;99.90;;;;;;4937818;29;20264;-58
2020/12/28 06:49:44;;;;;;;4.00;3.50;;;2.10;99.90;;;;;;4938180;29;20230;-57
2020/12/28 06:52:11;;;;;;;6.20;4.55;;;2.10;99.90;;;;;;4920717;29;20224;-58
2020/12/28 06:54:38;;;;;;;3.40;3.10;;;2.10;99.90;;;;;;4937605;29;20279;-58
2020/12/28 06:57:07;;;;;;;4.65;3.60;;;2.10;99.90;;;;;;4937195;29;20244;-60
2020/12/28 06:59:35;;;;;;;4.53;3.45;;;2.10;99.90;;;;;;4937037;29;20204;-56
2020/12/28 07:02:03;;;;;;;4.03;3.72;;;2.10;99.90;;;;;;4937077;29;20259;-59
2020/12/28 07:04:35;;;;;;;4.90;2.72;;;2.10;99.90;;;;;;4936512;29;20189;-58
2020/12/28 07:07:04;;;;;;;4.13;3.78;;;2.00;99.90;;;;;;4936615;29;20188;-57
2020/12/28 07:09:32;;;;;;;6.88;5.53;;;2.00;99.90;;;;;;4936864;29;20276;-54
2020/12/28 07:12:07;;;;;;;3.70;1.92;;;2.00;99.90;;;;;;4936874;29;20193;-56
2020/12/28 07:14:35;;;;;;;6.47;3.35;;;2.00;99.90;;;;;;4936646;29;20196;-60
2020/12/28 07:17:02;;;;;;;3.10;2.42;;;2.00;99.90;;;;;;4936622;29;20185;-56
2020/12/28 07:19:30;;;;;;;2.72;2.20;;;2.00;99.90;;;;;;4936818;29;20228;-59
2020/12/28 07:21:57;;;;;;;7.07;4.70;;;2.00;99.90;;;;;;4924410;29;20210;-59
2020/12/28 07:24:24;;;;;;;3.47;3.08;;;2.10;99.90;;;;;;4901554;29;20205;-56
2020/12/28 07:26:54;;;;;;;4.82;3.13;;;2.10;99.90;;;;;;4932436;29;20276;-56
2020/12/28 07:29:23;;;;;;;5.18;4.72;;;2.20;99.90;;;;;;4936257;29;20212;-58
2020/12/28 07:31:50;;;;;;;4.93;4.00;;;2.20;99.90;;;;;;4936450;29;20248;-57
2020/12/28 07:34:19;;;;;;;4.20;3.20;;;2.20;99.90;;;;;;4936608;29;20595;-56
2020/12/28 07:36:48;;;;;;;4.45;3.33;;;2.20;99.90;;;;;;4936113;29;20244;-57
2020/12/28 07:39:16;;;;;;;4.20;3.13;;;2.20;99.90;;;;;;4936640;29;20205;-55
2020/12/28 07:41:43;;;;;;;5.32;4.60;;;2.30;99.90;;;;;;4936555;29;20228;-57
2020/12/28 07:44:13;;;;;;;7.38;3.58;;;2.30;99.90;;;;;;4936180;29;20181;-59
2020/12/28 07:46:51;;;;;;;5.15;3.88;;;2.30;99.90;;;;;;4937051;29;20185;-58
2020/12/28 07:49:21;;;;;;;5.53;3.38;;;2.20;99.90;;;;;;4936850;29;20209;-57
2020/12/28 07:51:51;;;;;;;6.82;3.80;;;2.20;99.90;;;;;;4936813;29;20193;-56
2020/12/28 07:54:23;;;;;;;4.90;3.92;;;2.30;99.90;;;;;;4937357;29;20475;-56
2020/12/28 07:56:54;;;;;;;7.63;4.95;;;2.30;99.90;;;;;;4937432;29;20197;-56
2020/12/28 07:59:46;;;;;;;4.97;3.67;;;2.30;99.90;;;;;;4937022;29;20271;-57
2020/12/28 08:02:38;;;;;;;5.38;4.20;;;2.40;99.90;;;;;;4920409;29;20239;-53
2020/12/28 08:05:06;;;;;;;4.10;3.67;;;2.50;99.90;;;;;;4921425;29;20228;-55
2020/12/28 08:07:35;;;;;;;5.00;3.70;;;2.60;99.90;;;;;;4937690;29;20224;-55
2020/12/28 08:10:07;;;;;;;4.20;3.63;;;2.70;99.90;;;;;;4937063;29;20213;-57
2020/12/28 08:12:50;;;;;;;3.92;3.55;;;2.70;99.90;;;;;;4936535;29;20188;-56
2020/12/28 08:15:25;;;;;;;3.83;2.85;;;2.80;99.90;;;;;;4935665;29;20211;-58
2020/12/28 08:18:08;;;;;;;3.83;3.25;;;2.90;99.90;;;;;;4935970;29;20248;-57
2020/12/28 08:20:35;;;;;;;4.22;3.53;;;2.90;99.90;;;;;;4936397;29;20259;-56
2020/12/28 08:23:03;;;;;;;5.32;4.00;;;3.00;99.90;;;;;;4936495;29;20189;-56
2020/12/28 08:25:31;;;;;;;5.80;4.38;;;3.00;99.90;;;;;;4936167;29;20240;-60
2020/12/28 08:28:00;;;;;;;6.50;4.45;;;3.10;99.90;;;;;;4935580;29;20547;-56
2020/12/28 08:30:28;;;;;;;3.80;3.17;;;3.10;99.90;;;;;;4934989;29;20241;-56
2020/12/28 08:32:56;;;;;;;3.90;3.35;;;3.20;99.90;;;;;;4935192;29;20201;-58
2020/12/28 08:35:24;;;;;;;3.50;3.22;;;3.20;99.90;;;;;;4935619;29;20537;-57
2020/12/28 08:37:54;;;;;;;5.75;2.97;;;3.20;99.90;;;;;;4935471;29;20436;-54
2020/12/28 08:40:23;;;;;;;4.45;4.07;;;3.20;99.90;;;;;;4935232;29;20212;-56
2020/12/28 08:42:53;;;;;;;6.85;4.82;;;3.20;99.90;;;;;;4933739;29;20208;-56
2020/12/28 08:45:21;;;;;;;4.75;3.17;;;3.30;99.90;;;;;;4934646;29;20683;-56
2020/12/28 08:47:52;;;;;;;7.47;4.40;;;3.30;99.90;;;;;;4934324;29;20207;-57
2020/12/28 08:50:20;;;;;;;5.85;3.63;;;3.30;99.90;;;;;;4935227;29;20212;-58
2020/12/28 08:52:49;;;;;;;5.78;4.47;;;3.40;99.90;;;;;;4935104;29;20465;-54
2020/12/28 08:55:18;;;;;;;7.43;4.20;;;3.40;99.90;;;;;;4936046;29;20196;-58
2020/12/28 08:57:51;;;;;;;4.03;3.40;;;3.50;99.90;;;;;;4935276;29;20215;-58
2020/12/28 09:00:18;;;;;;;3.30;2.97;;;3.50;99.90;;;;;;4935022;29;20698;-58
2020/12/28 09:02:56;;;;;;;3.97;3.58;;;3.50;99.90;;;;;;4918321;29;20197;-59
2020/12/28 09:05:24;;;;;;;5.95;5.18;;;3.60;99.90;;;;;;4935872;29;20196;-59
2020/12/28 09:07:53;;;;;;;6.32;3.67;;;3.50;99.90;;;;;;4934687;29;20284;-58
2020/12/28 09:10:20;;;;;;;5.00;4.00;;;3.50;99.90;;;;;;4935591;29;20300;-59
2020/12/28 09:12:47;;;;;;;5.78;4.43;;;3.60;99.90;;;;;;4934811;29;20204;-60
2020/12/28 09:15:15;;;;;;;8.82;5.50;;;3.60;99.90;;;;;;4935372;29;20193;-56
2020/12/28 09:17:42;;;;;;;10.50;5.43;;;3.60;99.90;;;;;;4934652;29;20212;-58
2020/12/28 09:20:09;;;;;;;11.10;4.75;;;3.60;99.90;;;;;;4933698;29;20570;-58
2020/12/28 09:22:36;;;;;;;6.22;4.50;;;3.60;99.90;;;;;;4934144;29;20642;-58
2020/12/28 09:25:04;;;;;;;6.65;5.38;;;3.60;99.90;;;;;;4934107;29;20529;-56
2020/12/28 09:27:31;;;;;;;5.82;4.20;;;3.70;99.90;;;;;;4933459;29;20185;-57
2020/12/28 09:30:06;;;;;;;6.85;4.57;;;3.80;99.90;;;;;;4941428;29;20220;-59
2020/12/28 09:32:38;;;;;;;8.45;5.45;;;3.80;99.90;;;;;;4914897;29;20197;-57
2020/12/28 09:35:05;;;;;;;6.30;5.70;;;3.70;99.90;;;;;;4914792;29;20185;-55
2020/12/28 09:37:32;;;;;;;5.30;4.25;;;3.70;99.90;;;;;;4915016;29;20631;-59
2020/12/28 09:39:59;;;;;;;5.28;4.80;;;3.70;99.90;;;;;;4914439;29;20272;-58
2020/12/28 09:42:27;;;;;;;5.40;3.83;;;3.80;99.90;;;;;;4914530;29;20272;-60
2020/12/28 09:44:55;;;;;;;4.22;3.83;;;3.70;99.90;;;;;;4914801;29;20661;-60
2020/12/28 09:47:22;;;;;;;4.70;3.95;;;3.80;99.90;;;;;;4932201;29;20204;-57
2020/12/28 09:49:49;;;;;;;5.03;3.83;;;3.80;99.90;;;;;;4934134;29;20630;-55
2020/12/28 09:52:16;;;;;;;6.22;3.47;;;3.80;99.90;;;;;;4934921;29;20224;-56
2020/12/28 09:54:43;;;;;;;5.88;3.10;;;3.80;99.90;;;;;;4933071;29;20188;-59
2020/12/28 09:57:10;;;;;;;4.50;4.03;;;3.90;99.90;;;;;;4935059;29;20196;-57
2020/12/28 09:59:40;;;;;;;6.75;4.03;;;3.90;99.90;;;;;;4935792;29;20682;-57
2020/12/28 10:02:08;;;;;;;6.78;4.20;;;4.00;99.90;;;;;;4934725;29;20227;-56
2020/12/28 10:04:35;;;;;;;13.93;3.65;;;4.10;99.90;;;;;;4943101;23;20233;-61
2020/12/28 10:07:03;;;;;;;14.80;3.90;;;4.10;99.90;;;;;;4914872;29;20212;-61
2020/12/28 10:09:30;;;;;;;5.93;4.22;;;4.20;99.90;;;;;;4914857;29;20241;-61
2020/12/28 10:11:58;;;;;;;8.38;3.95;;;4.30;99.90;;;;;;4915255;29;20587;-58
2020/12/28 10:14:25;;;;;;;4.30;3.00;;;4.40;99.90;;;;;;4915467;29;20194;-61
2020/12/28 10:16:53;;;;;;;7.65;3.92;;;4.40;99.90;;;;;;4909141;29;20249;-62
2020/12/28 10:19:20;;;;;;;8.60;5.88;;;4.50;99.90;;;;;;4896145;29;20214;-61
2020/12/28 10:21:49;;;;;;;6.40;4.47;;;4.60;99.90;;;;;;4895899;29;20213;-61
2020/12/28 10:24:16;;;;;;;3.92;3.20;;;4.60;99.90;;;;;;4895738;29;20205;-59
2020/12/28 10:26:44;;;;;;;5.50;4.50;;;4.60;99.90;;;;;;4895983;29;20194;-61
2020/12/28 10:29:11;;;;;;;7.50;3.70;;;4.60;99.90;;;;;;4907016;29;20221;-60
2020/12/28 10:31:38;;;;;;;4.75;3.42;;;4.60;99.90;;;;;;4915183;29;20190;-61
2020/12/28 10:34:06;;;;;;;3.85;2.97;;;4.60;99.90;;;;;;4915187;29;20190;-59
2020/12/28 10:36:33;;;;;;;4.68;3.50;;;4.60;99.90;;;;;;4915146;29;20222;-61
2020/12/28 10:39:00;;;;;;;3.38;3.00;;;4.60;99.90;;;;;;4917007;29;20562;-61
2020/12/28 10:41:29;;;;;;;4.60;3.05;;;4.60;99.90;;;;;;4918736;29;20804;-58
2020/12/28 10:43:57;;;;;;;4.00;3.42;;;4.60;99.90;;;;;;4918769;29;20178;-61
2020/12/28 10:46:25;;;;;;;3.45;3.15;;;4.60;99.90;;;;;;4918493;29;20221;-58
2020/12/28 10:48:56;;;;;;;4.35;3.22;;;4.60;99.90;;;;;;4918380;29;20190;-60
2020/12/28 10:51:24;;;;;;;5.88;3.30;;;4.70;99.90;;;;;;4918158;29;20197;-62
2020/12/28 10:53:52;;;;;;;5.75;3.50;;;4.90;99.90;;;;;;4918254;29;20209;-62
2020/12/28 10:56:23;;;;;;;5.70;4.32;;;5.00;99.90;;;;;;4896923;29;20197;-59
2020/12/28 10:58:51;;;;;;;4.18;3.75;;;5.00;99.90;;;;;;4917870;29;20264;-61
2020/12/28 11:01:21;;;;;;;8.02;3.33;;;5.10;99.90;;;;;;4916469;29;20213;-63
2020/12/28 11:03:48;;;;;;;4.35;2.70;;;5.20;99.90;;;;;;4899281;29;20184;-61
2020/12/28 11:06:16;;;;;;;4.05;3.60;;;5.10;99.90;;;;;;4904699;29;20197;-60
2020/12/28 11:08:45;;;;;;;3.35;2.55;;;5.10;99.90;;;;;;4913449;29;20190;-59
2020/12/28 11:11:13;;;;;;;5.03;3.47;;;5.20;99.90;;;;;;4881717;29;20803;-61
2020/12/28 11:13:40;;;;;;;5.63;2.95;;;5.10;99.90;;;;;;4898965;29;20186;-60
2020/12/28 11:16:08;;;;;;;5.43;4.13;;;5.10;99.90;;;;;;4897974;29;20671;-61
2020/12/28 11:18:35;;;;;;;4.85;3.65;;;5.10;99.90;;;;;;4898301;29;20270;-62
2020/12/28 11:21:02;;;;;;;8.48;4.65;;;5.20;99.90;;;;;;4898101;29;20300;-61
2020/12/28 11:23:58;;;;;;;6.57;3.53;;;5.30;99.90;;;;;;4896660;29;20198;-60
2020/12/28 11:26:18;;;;;;;9.98;4.03;;;5.40;99.90;;;;;;4901538;29;20225;-59
2020/12/28 11:28:45;;;;;;;4.90;2.95;;;5.30;99.90;;;;;;4916290;29;20213;-59
2020/12/28 11:31:16;;;;;;;4.53;3.75;;;5.30;99.90;;;;;;4915583;29;20237;-60
2020/12/28 11:33:43;;;;;;;5.07;3.55;;;5.30;99.90;;;;;;4916572;29;20182;-60
2020/12/28 11:36:11;;;;;;;5.28;4.07;;;5.30;99.90;;;;;;4916631;29;20201;-60
2020/12/28 11:38:39;;;;;;;5.40;4.28;;;5.30;99.90;;;;;;4912942;29;20662;-61
2020/12/28 11:41:06;;;;;;;5.93;3.78;;;5.30;99.90;;;;;;4915579;29;20210;-58
2020/12/28 11:43:34;;;;;;;4.10;3.13;;;5.30;99.90;;;;;;4915030;29;20196;-61
2020/12/28 11:46:02;;;;;;;5.22;4.00;;;5.20;99.90;;;;;;4917110;29;20572;-57
2020/12/28 11:48:29;;;;;;;3.17;2.88;;;5.20;99.90;;;;;;4917210;29;20197;-56
2020/12/28 11:50:56;;;;;;;5.25;3.65;;;5.20;99.90;;;;;;4898579;29;20221;-55
2020/12/28 11:53:24;;;;;;;3.50;2.80;;;5.30;99.90;;;;;;4916168;29;20209;-57
2020/12/28 11:56:04;;;;;;;3.25;2.95;;;5.20;99.90;;;;;;4916327;29;20201;-57
2020/12/28 11:58:33;;;;;;;5.20;3.53;;;5.20;99.90;;;;;;4916887;29;20608;-63
2020/12/28 12:01:02;;;;;;;3.90;2.97;;;5.10;99.90;;;;;;4898807;29;20668;-60
2020/12/28 12:03:29;;;;;;;3.85;3.33;;;5.20;99.90;;;;;;4898508;29;20182;-55
2020/12/28 12:05:58;;;;;;;5.85;4.35;;;5.20;99.90;;;;;;4898489;29;20198;-58
2020/12/28 12:08:25;;;;;;;4.50;2.75;;;5.20;99.90;;;;;;4908610;29;20243;-60
2020/12/28 12:10:57;;;;;;;3.55;2.65;;;5.20;99.90;;;;;;4904142;29;20218;-61
2020/12/28 12:13:24;;;;;;;4.00;2.75;;;5.10;99.90;;;;;;4897811;29;20202;-59
2020/12/28 12:15:52;;;;;;;4.97;3.75;;;5.10;99.90;;;;;;4897683;29;20321;-58
2020/12/28 12:18:23;;;;;;;5.88;2.38;;;5.00;99.90;;;;;;4897752;29;20183;-59
2020/12/28 12:20:51;;;;;;;3.10;2.80;;;5.00;99.90;;;;;;4897445;29;20210;-57
2020/12/28 12:23:18;;;;;;;5.68;4.05;;;5.10;99.90;;;;;;4903568;29;20220;-60
2020/12/28 12:25:46;;;;;;;5.05;2.95;;;5.00;99.90;;;;;;4897819;29;20668;-58
2020/12/28 12:28:13;;;;;;;4.35;3.53;;;5.10;99.90;;;;;;4909994;29;20185;-60
2020/12/28 12:30:40;;;;;;;4.07;3.67;;;5.20;99.90;;;;;;4917537;29;20268;-60
2020/12/28 12:33:07;;;;;;;4.38;3.95;;;5.20;99.90;;;;;;4915745;29;20201;-59
2020/12/28 12:35:35;;;;;;;2.95;2.70;;;5.20;99.90;;;;;;4916975;29;20192;-57
2020/12/28 12:38:02;;;;;;;5.18;3.88;;;5.20;99.90;;;;;;4897445;29;20565;-58
2020/12/28 12:40:29;;;;;;;6.75;4.35;;;5.20;99.90;;;;;;4910703;29;20242;-54
2020/12/28 12:42:57;;;;;;;5.78;4.00;;;5.20;99.90;;;;;;4916351;29;20198;-60
2020/12/28 12:45:24;;;;;;;4.95;3.40;;;5.30;99.90;;;;;;4903924;29;20238;-60
2020/12/28 12:47:51;;;;;;;2.65;2.35;;;5.30;99.90;;;;;;4905745;29;20268;-60
2020/12/28 12:50:18;;;;;;;4.93;4.07;;;5.40;99.90;;;;;;4916083;29;20209;-59
2020/12/28 12:52:46;;;;;;;6.57;4.32;;;5.40;99.90;;;;;;4902614;29;20719;-60
2020/12/28 12:55:13;;;;;;;4.20;2.65;;;5.40;99.90;;;;;;4906720;29;20185;-57
2020/12/28 12:57:40;;;;;;;6.18;3.10;;;5.40;99.90;;;;;;4886542;29;20214;-53
2020/12/28 13:00:07;;;;;;;4.30;3.80;;;5.30;99.90;;;;;;4898735;29;20616;-58
2020/12/28 13:02:39;;;;;;;5.35;4.32;;;5.30;99.90;;;;;;4895671;29;20198;-55
2020/12/28 13:05:08;;;;;;;3.25;2.80;;;5.20;99.90;;;;;;4894034;29;20210;-55
2020/12/28 13:07:36;;;;;;;7.97;4.18;;;5.20;99.90;;;;;;4895443;29;20679;-58
2020/12/28 13:10:06;;;;;;;3.95;2.92;;;5.10;99.90;;;;;;4895831;29;20297;-53
2020/12/28 13:12:34;;;;;;;5.95;3.28;;;5.10;99.90;;;;;;4895279;29;20247;-57
2020/12/28 13:15:02;;;;;;;5.57;3.55;;;5.20;99.90;;;;;;4896134;29;20186;-62
2020/12/28 13:17:29;;;;;;;5.50;4.38;;;5.30;99.90;;;;;;4895401;29;20182;-58
2020/12/28 13:19:56;;;;;;;2.85;2.20;;;5.30;99.90;;;;;;4895907;29;20210;-60
2020/12/28 13:22:23;;;;;;;3.20;2.75;;;5.30;99.90;;;;;;4895631;29;20222;-55
2020/12/28 13:24:50;;;;;;;4.43;3.17;;;5.40;99.90;;;;;;4895572;29;20671;-57